Time;durP1;ratioP1;P1;durP2;ratioP2;P2;SDS_P1;SDS_P2;PMS_P1;PMS_P2;Temp;Humidity;BMP_temperature;BMP_pressure;BME280_temperature;BME280_humidity;BME280_pressure;Samples;Min_cycle;Max_cycle;Signal;HPM_P1;HPM_P2
2022/11/17 00:01:05;;;;;;;18.90;3.65;;;11.30;99.90;;;;;;5115182;28;20057;-66
2022/11/17 00:03:31;;;;;;;15.68;3.90;;;11.30;99.90;;;;;;5116554;28;20079;-64
2022/11/17 00:05:59;;;;;;;20.60;3.92;;;11.40;99.90;;;;;;5137353;27;20047;-65
2022/11/17 00:08:25;;;;;;;17.05;4.10;;;11.40;99.90;;;;;;5136574;27;20074;-64
2022/11/17 00:10:52;;;;;;;20.58;3.92;;;11.40;99.90;;;;;;5136987;27;20047;-64
2022/11/17 00:16:04;;;;;;;21.73;3.85;;;11.40;99.90;;;;;;5136133;27;20047;-65
2022/11/17 00:21:20;;;;;;;21.38;3.40;;;11.40;99.90;;;;;;5136099;27;20039;-66
2022/11/17 00:23:48;;;;;;;20.85;3.97;;;11.40;99.90;;;;;;5136807;27;20107;-63
2022/11/17 00:26:14;;;;;;;21.00;4.18;;;11.40;99.90;;;;;;5136283;27;20092;-64
2022/11/17 00:28:41;;;;;;;17.85;3.92;;;11.40;99.90;;;;;;5136482;27;20095;-64
2022/11/17 00:34:06;;;;;;;13.90;3.20;;;11.40;99.90;;;;;;5117653;27;20043;-62
2022/11/17 00:36:33;;;;;;;21.83;3.47;;;11.40;99.90;;;;;;5136166;27;20160;-62
2022/11/17 00:38:59;;;;;;;18.70;3.38;;;11.40;99.90;;;;;;5118105;27;20043;-64
2022/11/17 00:41:27;;;;;;;16.85;3.28;;;11.40;99.90;;;;;;5135757;27;20108;-64
2022/11/17 00:43:54;;;;;;;17.13;3.63;;;11.40;99.90;;;;;;5135846;27;20050;-65
2022/11/17 00:46:21;;;;;;;17.70;3.75;;;11.50;99.90;;;;;;5136382;27;20082;-63
2022/11/17 00:48:48;;;;;;;17.95;3.15;;;11.50;99.90;;;;;;5136030;27;20046;-61
2022/11/17 00:51:14;;;;;;;16.63;3.75;;;11.50;99.90;;;;;;5136178;27;20054;-67
2022/11/17 00:53:41;;;;;;;20.20;3.50;;;11.50;99.90;;;;;;5136505;27;20458;-64
2022/11/17 00:56:08;;;;;;;26.52;3.88;;;11.50;99.90;;;;;;5136340;27;20050;-63
2022/11/17 00:58:35;;;;;;;16.67;3.63;;;11.50;99.90;;;;;;5136289;27;20073;-68
2022/11/17 01:01:02;;;;;;;16.88;3.28;;;11.50;99.90;;;;;;5135645;27;20043;-65
2022/11/17 01:03:28;;;;;;;17.02;3.55;;;11.50;99.90;;;;;;5135972;27;20416;-67
2022/11/17 01:05:55;;;;;;;15.27;2.58;;;11.50;99.90;;;;;;5095062;28;20102;-65
2022/11/17 01:08:22;;;;;;;13.60;2.97;;;11.60;99.90;;;;;;5094813;28;20044;-64
2022/11/17 01:10:49;;;;;;;14.57;3.45;;;11.60;99.90;;;;;;5093618;28;20458;-65
2022/11/17 01:13:15;;;;;;;13.05;2.80;;;11.60;99.90;;;;;;5094653;28;20093;-63
2022/11/17 01:15:42;;;;;;;16.20;2.72;;;11.60;99.90;;;;;;5094449;28;20040;-65
2022/11/17 01:18:09;;;;;;;14.38;3.03;;;11.60;99.90;;;;;;5094578;28;20073;-64
2022/11/17 01:20:36;;;;;;;14.15;2.78;;;11.70;99.90;;;;;;5094512;28;20394;-66
2022/11/17 01:23:03;;;;;;;11.40;2.35;;;11.70;99.90;;;;;;5094685;28;20040;-66
2022/11/17 01:25:30;;;;;;;10.77;2.42;;;11.70;99.90;;;;;;5094425;28;20044;-63
2022/11/17 01:27:56;;;;;;;14.18;2.28;;;11.70;99.90;;;;;;5094532;28;20438;-69
2022/11/17 01:30:23;;;;;;;12.05;2.45;;;11.70;99.90;;;;;;5094663;28;20084;-64
2022/11/17 01:32:50;;;;;;;13.23;2.70;;;11.70;99.90;;;;;;5094371;28;20064;-66
2022/11/17 01:35:16;;;;;;;7.88;1.90;;;11.60;99.90;;;;;;5094647;28;20082;-65
2022/11/17 01:37:43;;;;;;;9.55;2.08;;;11.60;99.90;;;;;;5094415;28;20387;-65
2022/11/17 01:40:10;;;;;;;12.25;2.17;;;11.60;99.90;;;;;;5094092;28;20044;-66
2022/11/17 01:42:37;;;;;;;11.63;2.25;;;11.60;99.90;;;;;;5076042;28;20076;-65
2022/11/17 01:45:04;;;;;;;12.23;2.53;;;11.60;99.90;;;;;;5092801;28;20044;-65
2022/11/17 01:47:30;;;;;;;8.75;2.28;;;11.60;99.90;;;;;;5094417;28;20097;-66
2022/11/17 01:49:57;;;;;;;8.75;1.88;;;11.60;99.90;;;;;;5094272;28;20445;-64
2022/11/17 01:52:24;;;;;;;12.23;2.20;;;11.60;99.90;;;;;;5093775;28;20044;-68
2022/11/17 01:54:51;;;;;;;16.77;2.83;;;11.60;99.90;;;;;;5093782;28;20044;-63
2022/11/17 01:57:17;;;;;;;10.40;2.45;;;11.60;99.90;;;;;;5094337;28;20105;-67
2022/11/17 01:59:44;;;;;;;18.58;3.00;;;11.60;99.90;;;;;;5109449;28;20036;-64
2022/11/17 02:02:11;;;;;;;13.50;2.83;;;11.50;99.90;;;;;;5093054;28;20044;-68
2022/11/17 02:04:37;;;;;;;15.85;3.63;;;11.50;99.90;;;;;;5112731;27;20146;-66
2022/11/17 02:07:04;;;;;;;20.75;4.20;;;11.50;99.90;;;;;;5134209;27;20067;-67
2022/11/17 02:09:31;;;;;;;16.60;4.38;;;11.50;99.90;;;;;;5134895;27;20047;-68
2022/11/17 02:11:58;;;;;;;21.48;5.65;;;11.50;99.90;;;;;;5135015;27;20043;-66
2022/11/17 02:14:24;;;;;;;24.33;6.55;;;11.40;99.90;;;;;;5134661;27;20070;-63
2022/11/17 02:16:51;;;;;;;25.33;6.25;;;11.40;99.90;;;;;;5116329;28;20067;-65
2022/11/17 02:19:18;;;;;;;25.35;7.00;;;11.40;99.90;;;;;;5134317;28;20043;-66
2022/11/17 02:21:44;;;;;;;32.10;7.10;;;11.40;99.90;;;;;;5116477;28;20438;-64
2022/11/17 02:24:11;;;;;;;27.35;7.20;;;11.30;99.90;;;;;;5134817;27;20133;-67
2022/11/17 02:26:38;;;;;;;25.42;7.40;;;11.30;99.90;;;;;;5134677;28;20039;-64
2022/11/17 02:29:04;;;;;;;26.20;8.68;;;11.30;99.90;;;;;;5134809;28;20126;-65
2022/11/17 02:31:32;;;;;;;25.13;10.25;;;11.30;99.90;;;;;;5134142;28;20043;-64
2022/11/17 02:33:58;;;;;;;19.13;8.35;;;11.30;99.90;;;;;;5134319;28;20092;-64
2022/11/17 02:36:25;;;;;;;18.70;9.02;;;11.20;99.90;;;;;;5134842;27;20066;-67
2022/11/17 02:38:53;;;;;;;15.43;7.82;;;11.20;99.90;;;;;;5134339;28;20478;-65
2022/11/17 02:41:21;;;;;;;15.77;8.88;;;11.10;99.90;;;;;;5134710;28;20073;-64
2022/11/17 02:44:03;;;;;;;17.23;7.78;;;11.00;99.90;;;;;;5133817;28;20036;-66
2022/11/17 02:46:30;;;;;;;14.20;7.55;;;10.90;99.90;;;;;;5134258;28;20088;-67
2022/11/17 02:48:57;;;;;;;13.77;5.80;;;10.90;99.90;;;;;;5134098;28;20070;-63
2022/11/17 02:51:23;;;;;;;11.90;6.43;;;10.80;99.90;;;;;;5134071;28;20035;-67
2022/11/17 02:53:50;;;;;;;11.23;5.03;;;10.80;99.90;;;;;;5134008;28;20050;-63
2022/11/17 02:56:17;;;;;;;12.93;5.15;;;10.70;99.90;;;;;;5116107;28;20070;-63
2022/11/17 02:58:43;;;;;;;15.10;5.93;;;10.60;99.90;;;;;;5134278;28;20103;-64
2022/11/17 03:01:10;;;;;;;14.65;5.95;;;10.60;99.90;;;;;;5134136;28;20085;-63
2022/11/17 03:03:37;;;;;;;12.18;4.97;;;10.50;99.90;;;;;;5135053;27;20046;-64
2022/11/17 03:06:04;;;;;;;8.13;4.32;;;10.50;99.90;;;;;;5138090;27;20129;-65
2022/11/17 03:08:30;;;;;;;11.20;3.40;;;10.30;99.90;;;;;;5138071;27;20130;-66
2022/11/17 03:10:59;;;;;;;8.48;3.00;;;10.20;99.90;;;;;;5137704;27;20043;-64
2022/11/17 03:13:25;;;;;;;5.78;2.75;;;10.10;99.90;;;;;;5137655;27;20078;-66
2022/11/17 03:15:52;;;;;;;4.85;2.60;;;10.00;99.90;;;;;;5137240;27;20039;-67
2022/11/17 03:18:19;;;;;;;5.75;2.53;;;9.90;99.90;;;;;;5137182;27;20112;-65
2022/11/17 03:20:45;;;;;;;7.15;1.75;;;9.90;99.90;;;;;;5137465;27;20126;-66
2022/11/17 03:23:12;;;;;;;4.30;2.17;;;9.90;99.90;;;;;;5137944;27;20050;-66
2022/11/17 03:25:39;;;;;;;4.80;1.85;;;9.80;99.90;;;;;;5137638;27;20479;-65
2022/11/17 03:28:06;;;;;;;4.13;1.60;;;9.80;99.90;;;;;;5137489;27;20039;-64
2022/11/17 03:30:32;;;;;;;3.22;1.20;;;9.70;99.90;;;;;;5137245;27;20051;-69
2022/11/17 03:33:04;;;;;;;4.03;1.02;;;9.70;99.90;;;;;;5119237;27;20047;-65
2022/11/17 03:35:30;;;;;;;2.72;1.10;;;9.60;99.90;;;;;;5137099;27;20046;-65
2022/11/17 03:37:57;;;;;;;2.67;1.20;;;9.60;99.90;;;;;;5137261;27;20446;-64
2022/11/17 03:40:24;;;;;;;1.50;0.85;;;9.60;99.90;;;;;;5137865;27;20087;-65
2022/11/17 03:42:52;;;;;;;1.73;0.70;;;9.60;99.90;;;;;;5136873;27;20402;-63
2022/11/17 03:45:19;;;;;;;0.90;0.45;;;9.50;99.90;;;;;;5137526;27;20050;-66
2022/11/17 03:47:46;;;;;;;1.10;0.50;;;9.50;99.90;;;;;;5119145;27;20042;-61
2022/11/17 03:50:12;;;;;;;1.00;0.40;;;9.50;99.90;;;;;;5136927;27;20517;-65
2022/11/17 03:52:39;;;;;;;1.23;0.40;;;9.50;99.90;;;;;;5137107;27;20096;-63
2022/11/17 03:55:06;;;;;;;1.27;0.40;;;9.50;99.90;;;;;;5136835;27;20031;-64
2022/11/17 03:57:33;;;;;;;2.35;0.50;;;9.50;99.90;;;;;;5136833;27;20071;-66
2022/11/17 03:59:59;;;;;;;0.88;0.40;;;9.50;99.90;;;;;;5136859;27;20521;-66
2022/11/17 04:02:26;;;;;;;1.17;0.40;;;9.40;99.90;;;;;;5135600;27;20042;-65
2022/11/17 04:05:05;;;;;;;1.88;0.60;;;9.40;99.90;;;;;;5118442;27;20087;-67
2022/11/17 04:07:32;;;;;;;2.03;0.40;;;9.40;99.90;;;;;;5136861;27;20073;-65
2022/11/17 04:09:58;;;;;;;0.73;0.40;;;9.40;99.90;;;;;;5136505;27;20043;-67
2022/11/17 04:17:56;;;;;;;1.65;0.50;;;9.40;99.90;;;;;;5136280;27;20076;-63
2022/11/17 04:20:23;;;;;;;1.10;0.43;;;9.40;99.90;;;;;;5137128;27;20039;-66
2022/11/17 04:23:05;;;;;;;1.02;0.40;;;9.30;99.90;;;;;;5118859;27;20045;-66
2022/11/17 04:28:36;;;;;;;1.77;0.80;;;9.30;99.90;;;;;;5136923;27;20084;-63
2022/11/17 04:31:03;;;;;;;2.42;0.70;;;9.30;99.90;;;;;;5117464;27;20047;-67
2022/11/17 04:33:30;;;;;;;1.55;0.60;;;9.30;99.90;;;;;;5118363;27;20043;-66
2022/11/17 04:35:56;;;;;;;2.13;0.75;;;9.30;99.90;;;;;;5136361;27;20531;-63
2022/11/17 04:38:23;;;;;;;2.50;0.80;;;9.30;99.90;;;;;;5136515;27;20489;-66
2022/11/17 04:43:35;;;;;;;3.05;1.00;;;9.30;99.90;;;;;;5135959;27;20050;-64
2022/11/17 04:46:02;;;;;;;2.60;1.10;;;9.30;99.90;;;;;;5136362;27;20039;-66
2022/11/17 04:48:29;;;;;;;5.05;1.40;;;9.30;99.90;;;;;;5136172;27;20078;-65
2022/11/17 04:50:56;;;;;;;2.60;1.08;;;9.30;99.90;;;;;;5135899;27;20027;-64
2022/11/17 04:53:22;;;;;;;2.65;1.05;;;9.30;99.90;;;;;;5117624;27;20546;-63
2022/11/17 04:55:49;;;;;;;4.82;1.45;;;9.30;99.90;;;;;;5136110;27;20047;-65
2022/11/17 04:58:16;;;;;;;3.13;1.20;;;9.30;99.90;;;;;;5136160;27;20069;-65
2022/11/17 05:00:42;;;;;;;3.15;1.30;;;9.30;99.90;;;;;;5136011;27;20045;-65
2022/11/17 05:03:09;;;;;;;2.78;1.20;;;9.30;99.90;;;;;;5135595;27;20436;-66
2022/11/17 05:05:36;;;;;;;3.72;1.40;;;9.30;99.90;;;;;;5136003;27;20546;-66
2022/11/17 05:08:02;;;;;;;2.55;1.25;;;9.30;99.90;;;;;;5135671;27;20062;-67
2022/11/17 05:13:21;;;;;;;2.83;1.27;;;9.30;99.90;;;;;;5135535;27;20053;-64
2022/11/17 05:18:33;;;;;;;2.80;1.30;;;9.20;99.90;;;;;;5135671;27;20039;-62
2022/11/17 05:20:59;;;;;;;4.45;1.52;;;9.20;99.90;;;;;;5135446;27;20043;-66
2022/11/17 05:26:12;;;;;;;2.72;1.58;;;9.20;99.90;;;;;;5134302;27;20092;-66
2022/11/17 05:28:39;;;;;;;3.47;1.67;;;9.20;99.90;;;;;;5135502;27;20031;-65
2022/11/17 05:31:05;;;;;;;3.33;1.75;;;9.30;99.90;;;;;;5134546;27;20073;-65
2022/11/17 05:33:35;;;;;;;5.25;1.85;;;9.20;99.90;;;;;;5114779;27;20073;-63
2022/11/17 05:36:03;;;;;;;3.65;1.85;;;9.20;99.90;;;;;;5134239;27;20043;-64
2022/11/17 05:38:35;;;;;;;3.38;1.45;;;9.20;99.90;;;;;;5134366;27;20470;-66
2022/11/17 05:41:02;;;;;;;3.28;1.58;;;9.20;99.90;;;;;;5134504;27;20031;-67
2022/11/17 05:43:29;;;;;;;4.03;1.70;;;9.20;99.90;;;;;;5135376;27;20058;-65
2022/11/17 05:45:55;;;;;;;3.45;1.67;;;9.20;99.90;;;;;;5135062;27;20088;-64
2022/11/17 05:48:22;;;;;;;5.82;1.73;;;9.20;99.90;;;;;;5134499;27;20398;-67
2022/11/17 05:50:49;;;;;;;4.32;1.85;;;9.20;99.90;;;;;;5134535;27;20066;-66
2022/11/17 05:53:15;;;;;;;4.13;1.50;;;9.20;99.90;;;;;;5134671;27;20530;-66
2022/11/17 05:55:42;;;;;;;3.83;1.48;;;9.10;99.90;;;;;;5134381;27;20031;-66
2022/11/17 05:58:09;;;;;;;3.33;1.40;;;9.20;99.90;;;;;;5134724;27;20035;-64
2022/11/17 06:00:35;;;;;;;4.00;1.45;;;9.10;99.90;;;;;;5116126;27;20043;-63
2022/11/17 06:03:02;;;;;;;4.25;1.50;;;9.10;99.90;;;;;;5133075;27;20035;-67
2022/11/17 06:05:29;;;;;;;4.65;1.63;;;9.10;99.90;;;;;;5134332;27;20066;-67
2022/11/17 06:07:58;;;;;;;5.95;1.40;;;9.10;99.90;;;;;;5134446;27;20043;-66
2022/11/17 06:10:25;;;;;;;3.03;1.23;;;9.10;99.90;;;;;;5133947;27;20091;-63
2022/11/17 06:12:52;;;;;;;4.78;1.52;;;9.00;99.90;;;;;;5134179;27;20138;-65
2022/11/17 06:15:19;;;;;;;4.07;1.40;;;9.00;99.90;;;;;;5134877;27;20031;-64
2022/11/17 06:17:45;;;;;;;6.82;1.50;;;9.00;99.90;;;;;;5134249;27;20481;-64
2022/11/17 06:20:12;;;;;;;2.97;1.20;;;9.00;99.90;;;;;;5134997;28;20063;-64
2022/11/17 06:22:39;;;;;;;4.18;1.52;;;9.00;99.90;;;;;;5134270;28;20072;-66
2022/11/17 06:25:13;;;;;;;4.05;1.40;;;9.00;99.90;;;;;;5134264;27;20466;-66
2022/11/17 06:27:40;;;;;;;3.20;1.50;;;9.00;99.90;;;;;;5134140;28;20115;-65
2022/11/17 06:30:07;;;;;;;3.05;1.20;;;9.00;99.90;;;;;;5135039;28;20066;-64
2022/11/17 06:32:33;;;;;;;4.10;1.48;;;9.00;99.90;;;;;;5133864;28;20083;-64
2022/11/17 06:35:00;;;;;;;4.65;1.45;;;9.00;99.90;;;;;;5109784;28;20039;-65
2022/11/17 06:37:27;;;;;;;4.82;1.50;;;8.90;99.90;;;;;;5135788;27;20117;-65
2022/11/17 06:39:54;;;;;;;4.03;1.50;;;8.90;99.90;;;;;;5120170;27;20042;-66
2022/11/17 06:43:02;;;;;;;3.50;1.23;;;8.90;99.90;;;;;;5138054;27;20117;-64
2022/11/17 06:45:07;;;;;;;4.13;1.30;;;8.90;99.90;;;;;;5137602;27;20431;-65
2022/11/17 06:47:34;;;;;;;4.18;1.33;;;8.90;99.90;;;;;;5138046;27;20122;-65
2022/11/17 06:50:00;;;;;;;3.00;1.17;;;8.90;99.90;;;;;;5138250;27;20392;-66
2022/11/17 06:52:27;;;;;;;8.20;1.30;;;8.90;99.90;;;;;;5138075;27;20446;-66
2022/11/17 06:54:54;;;;;;;4.32;1.17;;;8.90;99.90;;;;;;5138289;27;20058;-65
2022/11/17 06:57:20;;;;;;;5.40;1.48;;;8.90;99.90;;;;;;5138088;27;20035;-65
2022/11/17 06:59:47;;;;;;;4.13;1.30;;;8.90;99.90;;;;;;5137697;27;20031;-65
2022/11/17 07:02:14;;;;;;;5.30;1.40;;;8.90;99.90;;;;;;5137549;27;20084;-68
2022/11/17 07:04:40;;;;;;;4.53;1.65;;;8.90;99.90;;;;;;5137821;27;20108;-65
2022/11/17 07:07:07;;;;;;;3.72;1.17;;;8.90;99.90;;;;;;5107656;27;20038;-66
2022/11/17 07:09:34;;;;;;;3.30;0.82;;;8.90;99.90;;;;;;5101629;28;20114;-65
2022/11/17 07:12:01;;;;;;;2.60;1.10;;;8.90;99.90;;;;;;5124069;27;20054;-63
2022/11/17 07:14:28;;;;;;;4.18;1.08;;;8.90;99.90;;;;;;5137524;27;20136;-65
2022/11/17 07:16:54;;;;;;;3.08;1.20;;;8.90;99.90;;;;;;5137149;27;20064;-66
2022/11/17 07:19:21;;;;;;;3.25;0.93;;;8.90;99.90;;;;;;5137019;27;20103;-65
2022/11/17 07:21:48;;;;;;;5.07;1.20;;;8.90;99.90;;;;;;5136942;27;20084;-66
2022/11/17 07:24:15;;;;;;;2.15;1.08;;;8.90;99.90;;;;;;5137350;27;20050;-64
2022/11/17 07:26:41;;;;;;;5.47;1.25;;;8.90;99.90;;;;;;5126602;27;20043;-65
2022/11/17 07:29:08;;;;;;;3.63;1.05;;;8.80;99.90;;;;;;5137212;27;20104;-65
2022/11/17 07:31:35;;;;;;;4.38;1.25;;;8.90;99.90;;;;;;5136610;27;20046;-65
2022/11/17 07:34:02;;;;;;;5.28;1.00;;;8.90;99.90;;;;;;5137552;27;20047;-65
2022/11/17 07:36:29;;;;;;;5.78;1.30;;;8.80;99.90;;;;;;5136884;27;20059;-64
2022/11/17 07:38:56;;;;;;;2.63;1.20;;;8.90;99.90;;;;;;5136659;27;20550;-65
2022/11/17 07:41:22;;;;;;;4.57;1.20;;;8.90;99.90;;;;;;5117850;27;20057;-64
2022/11/17 07:43:49;;;;;;;4.78;1.20;;;8.80;99.90;;;;;;5136034;27;20046;-65
2022/11/17 07:46:16;;;;;;;4.72;1.20;;;8.90;99.90;;;;;;5136336;27;20066;-64
2022/11/17 07:48:43;;;;;;;3.67;1.10;;;8.90;99.90;;;;;;5136231;27;20039;-64
2022/11/17 07:51:10;;;;;;;2.03;1.10;;;8.80;99.90;;;;;;5136932;27;20039;-65
2022/11/17 07:53:37;;;;;;;3.42;1.60;;;8.80;99.90;;;;;;5137220;27;20114;-62
2022/11/17 07:56:03;;;;;;;2.75;1.10;;;8.80;99.90;;;;;;5135945;27;20145;-68
2022/11/17 07:58:30;;;;;;;3.60;1.33;;;8.80;99.90;;;;;;5136597;27;20039;-65
2022/11/17 08:00:57;;;;;;;3.15;1.30;;;8.90;99.90;;;;;;5134181;27;20038;-63
2022/11/17 08:03:24;;;;;;;2.67;1.40;;;8.90;99.90;;;;;;5119727;27;20031;-65
2022/11/17 08:05:52;;;;;;;2.85;1.77;;;8.90;99.90;;;;;;5131671;27;20039;-63
2022/11/17 08:08:18;;;;;;;4.93;1.67;;;8.90;99.90;;;;;;5135310;27;20043;-63
2022/11/17 08:10:45;;;;;;;6.28;1.67;;;8.90;99.90;;;;;;5135917;27;20047;-63
2022/11/17 08:13:14;;;;;;;7.85;2.30;;;8.90;99.90;;;;;;5131520;27;20035;-64
2022/11/17 08:15:40;;;;;;;6.25;1.90;;;8.90;99.90;;;;;;5117653;27;20084;-64
2022/11/17 08:18:07;;;;;;;4.65;1.80;;;8.90;99.90;;;;;;5134980;27;20118;-66
2022/11/17 08:20:34;;;;;;;5.82;2.20;;;8.90;99.90;;;;;;5135372;27;20092;-66
2022/11/17 08:23:01;;;;;;;5.05;1.98;;;8.90;99.90;;;;;;5129599;27;20435;-64
2022/11/17 08:25:27;;;;;;;4.07;1.80;;;8.90;99.90;;;;;;5135687;27;20047;-64
2022/11/17 08:27:54;;;;;;;5.40;2.38;;;8.90;99.90;;;;;;5136660;27;20042;-64
2022/11/17 08:30:21;;;;;;;6.45;2.00;;;8.90;99.90;;;;;;5135986;27;20111;-65
2022/11/17 08:32:48;;;;;;;5.38;2.40;;;9.00;99.90;;;;;;5135778;27;20039;-66
2022/11/17 08:35:16;;;;;;;5.60;2.20;;;9.00;99.90;;;;;;5117652;27;20432;-65
2022/11/17 08:37:42;;;;;;;6.65;2.50;;;9.00;99.90;;;;;;5117929;27;20096;-65
2022/11/17 08:40:09;;;;;;;6.25;2.40;;;8.90;99.90;;;;;;5135965;27;20494;-64
2022/11/17 08:42:36;;;;;;;7.25;2.55;;;9.00;99.90;;;;;;5135804;27;20047;-65
2022/11/17 08:45:02;;;;;;;6.57;2.45;;;9.00;99.90;;;;;;5135319;27;20122;-64
2022/11/17 08:47:29;;;;;;;8.38;2.38;;;9.00;99.90;;;;;;5135162;27;20099;-64
2022/11/17 08:49:56;;;;;;;3.55;2.08;;;9.00;99.90;;;;;;5117246;27;20047;-64
2022/11/17 08:52:23;;;;;;;6.78;2.63;;;9.00;99.90;;;;;;5117242;27;20050;-64
2022/11/17 08:54:51;;;;;;;5.63;2.45;;;9.00;99.90;;;;;;5135208;27;20035;-63
2022/11/17 08:57:20;;;;;;;4.75;2.22;;;9.00;99.90;;;;;;5135693;27;20542;-65
2022/11/17 08:59:47;;;;;;;6.95;2.13;;;9.00;99.90;;;;;;5135450;27;20085;-65
2022/11/17 09:02:14;;;;;;;7.05;2.45;;;9.10;99.90;;;;;;5135090;27;20027;-67
2022/11/17 09:04:41;;;;;;;5.40;2.13;;;9.10;99.90;;;;;;5134928;27;20452;-65
2022/11/17 09:07:07;;;;;;;5.80;2.00;;;9.10;99.90;;;;;;5117238;27;20043;-64
2022/11/17 09:09:34;;;;;;;7.45;2.33;;;9.10;99.90;;;;;;5135046;27;20039;-64
2022/11/17 09:12:01;;;;;;;7.97;2.08;;;9.10;99.90;;;;;;5134919;27;20045;-64
2022/11/17 09:14:28;;;;;;;7.20;2.50;;;9.10;99.90;;;;;;5134685;27;20052;-64
2022/11/17 09:16:55;;;;;;;4.93;2.05;;;9.20;99.90;;;;;;5134813;27;20447;-65
2022/11/17 09:19:22;;;;;;;5.10;2.00;;;9.20;99.90;;;;;;5116977;27;20032;-65
2022/11/17 09:21:49;;;;;;;6.22;2.15;;;9.20;99.90;;;;;;5134788;27;20043;-63
2022/11/17 09:24:15;;;;;;;4.13;2.05;;;9.20;99.90;;;;;;5134738;27;20375;-65
2022/11/17 09:26:43;;;;;;;6.15;2.03;;;9.30;99.90;;;;;;5116791;27;20435;-66
2022/11/17 09:29:10;;;;;;;9.05;3.50;;;9.30;99.90;;;;;;5132754;27;20035;-64
2022/11/17 09:31:37;;;;;;;7.50;2.92;;;9.30;99.90;;;;;;5134787;27;20378;-63
2022/11/17 09:34:04;;;;;;;7.97;2.47;;;9.40;99.90;;;;;;5134908;27;20049;-64
2022/11/17 09:36:31;;;;;;;6.65;2.15;;;9.40;99.90;;;;;;5130324;27;20089;-63
2022/11/17 09:38:58;;;;;;;8.15;2.40;;;9.50;99.90;;;;;;5114034;28;20535;-64
2022/11/17 09:41:25;;;;;;;4.60;2.35;;;9.50;99.90;;;;;;5096006;28;20117;-63
2022/11/17 09:43:52;;;;;;;5.05;2.10;;;9.60;99.90;;;;;;5113956;28;20050;-66
2022/11/17 09:46:18;;;;;;;3.97;1.75;;;9.60;99.90;;;;;;5114046;27;20039;-64
2022/11/17 09:48:45;;;;;;;5.32;1.77;;;9.60;99.90;;;;;;5114092;28;20443;-67
2022/11/17 09:51:12;;;;;;;6.07;1.98;;;9.70;99.90;;;;;;5114090;28;20070;-65
2022/11/17 09:53:39;;;;;;;5.03;1.98;;;9.80;99.90;;;;;;5095395;28;20391;-66
2022/11/17 09:56:05;;;;;;;5.05;1.80;;;9.90;99.90;;;;;;5095955;28;20074;-66
2022/11/17 09:58:32;;;;;;;4.55;1.67;;;10.00;99.90;;;;;;5095813;28;20478;-68
2022/11/17 10:00:59;;;;;;;6.03;1.70;;;10.10;99.90;;;;;;5113978;28;20077;-67
2022/11/17 10:03:27;;;;;;;4.53;1.77;;;10.20;99.90;;;;;;5113795;28;20050;-66
2022/11/17 10:05:54;;;;;;;4.55;1.85;;;10.30;99.90;;;;;;5131092;27;20059;-65
2022/11/17 10:08:21;;;;;;;6.63;2.13;;;10.30;99.90;;;;;;5134242;27;20074;-65
2022/11/17 10:10:47;;;;;;;4.13;1.60;;;10.40;99.90;;;;;;5134219;27;20039;-67
2022/11/17 10:13:14;;;;;;;5.10;1.92;;;10.40;99.90;;;;;;5133394;27;20047;-68
2022/11/17 10:15:41;;;;;;;5.07;1.75;;;10.50;99.90;;;;;;5133759;27;20039;-65
2022/11/17 10:18:07;;;;;;;3.92;1.70;;;10.50;99.90;;;;;;5134090;27;20542;-66
2022/11/17 10:20:34;;;;;;;4.78;2.15;;;10.60;99.90;;;;;;5115652;28;20095;-68
2022/11/17 10:23:01;;;;;;;5.93;1.80;;;10.60;99.90;;;;;;5133860;28;20070;-66
2022/11/17 10:25:27;;;;;;;5.57;2.28;;;10.60;99.90;;;;;;5133849;27;20063;-66
2022/11/17 10:27:54;;;;;;;5.05;1.65;;;10.60;99.90;;;;;;5133959;28;20043;-67
2022/11/17 10:30:22;;;;;;;5.32;1.55;;;10.60;99.90;;;;;;5134149;28;20505;-66
2022/11/17 10:32:51;;;;;;;3.33;1.77;;;10.70;99.90;;;;;;5112802;28;20048;-66
2022/11/17 10:35:18;;;;;;;6.10;1.92;;;10.70;99.90;;;;;;5112223;28;20086;-64
2022/11/17 10:37:44;;;;;;;3.45;1.70;;;10.70;99.90;;;;;;5113046;28;20044;-66
2022/11/17 10:40:11;;;;;;;6.60;1.83;;;10.70;99.90;;;;;;5113057;28;20131;-66
2022/11/17 10:42:38;;;;;;;6.18;1.88;;;10.70;99.90;;;;;;5113186;28;20475;-66
2022/11/17 10:45:05;;;;;;;4.30;1.80;;;10.60;99.90;;;;;;5113431;28;20078;-65
2022/11/17 10:47:32;;;;;;;7.97;1.77;;;10.70;99.90;;;;;;5113211;28;20055;-66
2022/11/17 10:49:59;;;;;;;5.90;1.67;;;10.60;99.90;;;;;;5113094;28;20051;-66
2022/11/17 10:52:25;;;;;;;7.65;1.85;;;10.60;99.90;;;;;;5112978;28;20039;-65
2022/11/17 10:54:52;;;;;;;7.30;2.05;;;10.60;99.90;;;;;;5095027;28;20356;-65
2022/11/17 10:57:19;;;;;;;8.15;2.13;;;10.70;99.90;;;;;;5113153;28;20111;-65
2022/11/17 10:59:46;;;;;;;5.75;1.90;;;10.60;99.90;;;;;;5113123;28;20097;-66
2022/11/17 11:02:20;;;;;;;4.30;1.80;;;10.70;99.90;;;;;;5113336;28;20401;-65
2022/11/17 11:04:47;;;;;;;4.20;1.73;;;10.70;99.90;;;;;;5113248;28;20112;-65
2022/11/17 11:07:14;;;;;;;8.38;2.00;;;10.60;99.90;;;;;;5112784;28;20044;-66
2022/11/17 11:09:41;;;;;;;5.43;1.67;;;10.70;99.90;;;;;;5113071;28;20039;-66
2022/11/17 11:12:08;;;;;;;4.63;1.90;;;10.70;99.90;;;;;;5094582;28;20449;-66
2022/11/17 11:14:35;;;;;;;6.18;1.90;;;10.70;99.90;;;;;;5113117;28;20131;-66
2022/11/17 11:17:01;;;;;;;6.70;2.13;;;10.80;99.90;;;;;;5112639;28;20044;-66
2022/11/17 11:19:28;;;;;;;5.80;2.00;;;10.70;99.90;;;;;;5112956;28;20479;-66
2022/11/17 11:21:55;;;;;;;7.20;2.15;;;10.80;99.90;;;;;;5112930;28;20383;-64
2022/11/17 11:24:22;;;;;;;5.20;2.13;;;10.80;99.90;;;;;;5114031;28;20114;-66
2022/11/17 11:26:48;;;;;;;5.85;1.88;;;10.70;99.90;;;;;;5116673;28;20063;-65
2022/11/17 11:29:15;;;;;;;6.68;2.10;;;10.80;99.90;;;;;;5116624;28;20043;-66
2022/11/17 11:31:42;;;;;;;4.65;2.05;;;10.80;99.90;;;;;;5116531;28;20188;-64
2022/11/17 11:34:09;;;;;;;5.65;1.88;;;10.80;99.90;;;;;;5116066;28;20048;-65
2022/11/17 11:36:36;;;;;;;6.40;2.63;;;10.80;99.90;;;;;;5116446;28;20092;-66
2022/11/17 11:39:02;;;;;;;7.85;4.00;;;10.70;99.90;;;;;;5121128;27;20080;-65
2022/11/17 11:41:29;;;;;;;9.40;2.80;;;10.70;99.90;;;;;;5135192;27;20474;-64
2022/11/17 11:43:56;;;;;;;5.95;2.72;;;10.80;99.90;;;;;;5136689;27;20043;-64
2022/11/17 11:46:22;;;;;;;6.95;3.00;;;10.70;99.90;;;;;;5136763;27;20382;-65
2022/11/17 11:48:49;;;;;;;5.00;2.22;;;10.80;99.90;;;;;;5136520;27;20043;-64
2022/11/17 11:51:16;;;;;;;5.32;2.00;;;10.80;99.90;;;;;;5137109;27;20039;-64
2022/11/17 11:53:42;;;;;;;5.78;2.00;;;10.80;99.90;;;;;;5136556;27;20031;-65
2022/11/17 11:56:09;;;;;;;4.82;1.90;;;10.80;99.90;;;;;;5136886;27;20088;-66
2022/11/17 11:58:36;;;;;;;8.73;2.25;;;10.80;99.90;;;;;;5136684;27;20442;-65
2022/11/17 12:01:03;;;;;;;6.95;2.40;;;10.80;99.90;;;;;;5118485;27;20070;-66
2022/11/17 12:03:29;;;;;;;6.10;2.80;;;10.80;99.90;;;;;;5136278;27;20458;-66
2022/11/17 12:05:56;;;;;;;9.25;4.10;;;10.80;99.90;;;;;;5136220;27;20062;-65
2022/11/17 12:08:23;;;;;;;4.90;2.70;;;10.80;99.90;;;;;;5136535;27;20529;-65
2022/11/17 12:10:50;;;;;;;9.35;3.05;;;10.80;99.90;;;;;;5136199;27;20142;-66
2022/11/17 12:13:16;;;;;;;4.93;2.30;;;10.80;99.90;;;;;;5117182;27;20082;-65
2022/11/17 12:15:43;;;;;;;5.10;2.05;;;10.80;99.90;;;;;;5128925;27;20036;-65
2022/11/17 12:18:10;;;;;;;11.00;5.93;;;10.90;99.90;;;;;;5135388;27;20047;-64
2022/11/17 12:20:37;;;;;;;5.63;2.88;;;10.90;99.90;;;;;;5136034;27;20078;-66
2022/11/17 12:23:03;;;;;;;5.65;2.50;;;10.80;99.90;;;;;;5129909;27;20455;-64
2022/11/17 12:25:30;;;;;;;6.07;2.47;;;10.80;99.90;;;;;;5120999;27;20498;-64
2022/11/17 12:27:57;;;;;;;7.32;2.90;;;10.80;99.90;;;;;;5135323;27;20051;-65
2022/11/17 12:30:23;;;;;;;4.70;2.08;;;10.90;99.90;;;;;;5135843;27;20125;-66
2022/11/17 12:32:50;;;;;;;5.60;2.30;;;10.90;99.90;;;;;;5135143;27;20343;-64
2022/11/17 12:35:18;;;;;;;5.60;2.05;;;10.90;99.90;;;;;;5134318;27;20039;-64
2022/11/17 12:37:45;;;;;;;5.90;2.50;;;11.00;99.90;;;;;;5135666;27;20039;-63
2022/11/17 12:40:11;;;;;;;4.65;2.20;;;11.00;99.90;;;;;;5130556;27;20138;-65
2022/11/17 12:42:38;;;;;;;8.35;1.95;;;11.00;99.90;;;;;;5135794;27;20451;-65
2022/11/17 12:45:05;;;;;;;13.32;5.00;;;11.10;99.90;;;;;;5135295;27;20122;-65
2022/11/17 12:47:32;;;;;;;5.05;2.08;;;11.10;99.90;;;;;;5135639;27;20039;-64
2022/11/17 12:49:58;;;;;;;4.30;1.83;;;11.20;99.90;;;;;;5116566;27;20542;-65
2022/11/17 12:52:25;;;;;;;8.43;1.70;;;11.20;99.90;;;;;;5135717;27;20435;-65
2022/11/17 12:54:52;;;;;;;3.83;1.73;;;11.20;99.90;;;;;;5135561;27;20054;-65
2022/11/17 12:57:18;;;;;;;5.47;1.60;;;11.30;99.90;;;;;;5116304;27;20035;-65
2022/11/17 12:59:45;;;;;;;4.53;1.67;;;11.30;99.90;;;;;;5133922;27;20055;-67
2022/11/17 13:02:12;;;;;;;4.68;1.85;;;11.40;99.90;;;;;;5135001;27;20554;-66
2022/11/17 13:04:39;;;;;;;6.63;1.75;;;11.40;99.90;;;;;;5134512;27;20047;-66
2022/11/17 13:07:11;;;;;;;3.28;1.33;;;11.40;99.90;;;;;;5135397;27;20133;-67
2022/11/17 13:09:38;;;;;;;4.28;1.50;;;11.40;99.90;;;;;;5135295;27;20400;-67
2022/11/17 13:12:05;;;;;;;5.45;1.65;;;11.50;99.90;;;;;;5134958;27;20512;-67
2022/11/17 13:14:32;;;;;;;4.50;1.80;;;11.50;99.90;;;;;;5135293;27;20047;-67
2022/11/17 13:16:59;;;;;;;3.80;1.80;;;11.50;99.90;;;;;;5117177;27;20049;-66